Time;durP1;ratioP1;P1;durP2;ratioP2;P2;SDS_P1;SDS_P2;PMS_P1;PMS_P2;Temp;Humidity;BMP_temperature;BMP_pressure;BME280_temperature;BME280_humidity;BME280_pressure;Samples;Min_cycle;Max_cycle;Signal;HPM_P1;HPM_P2
2021/03/08 00:01:26;;;;;;;2.47;1.50;;;18.80;72.90;;;;;;5022737;28;95345;-41
2021/03/08 00:03:57;;;;;;;4.97;1.60;;;18.80;72.90;;;;;;5014798;28;95931;-41
2021/03/08 00:06:28;;;;;;;1.77;1.67;;;18.80;72.90;;;;;;5010806;28;95717;-41
2021/03/08 00:08:57;;;;;;;2.93;1.67;;;18.80;72.80;;;;;;5017655;28;95967;-40
2021/03/08 00:11:27;;;;;;;1.63;1.40;;;18.80;72.80;;;;;;5012930;28;95744;-41
2021/03/08 00:13:58;;;;;;;2.30;2.03;;;18.80;72.80;;;;;;5018023;28;95829;-41
2021/03/08 00:16:28;;;;;;;1.40;1.30;;;18.80;72.90;;;;;;5019019;27;96194;-41
2021/03/08 00:18:59;;;;;;;2.60;1.40;;;18.80;72.80;;;;;;4996191;28;96735;-43
2021/03/08 00:21:30;;;;;;;3.73;1.63;;;18.80;72.80;;;;;;5022137;28;95593;-41
2021/03/08 00:24:00;;;;;;;2.22;1.63;;;18.80;72.80;;;;;;5013336;28;95546;-40
2021/03/08 00:26:29;;;;;;;1.92;1.60;;;18.80;72.80;;;;;;5011332;28;95207;-40
2021/03/08 00:29:14;;;;;;;1.88;1.42;;;18.90;72.80;;;;;;4999582;28;103796;-40
2021/03/08 00:31:44;;;;;;;2.85;1.45;;;18.80;72.80;;;;;;5009124;28;96092;-41
2021/03/08 00:34:14;;;;;;;1.90;1.50;;;18.90;72.80;;;;;;5021772;28;95317;-41
2021/03/08 00:36:45;;;;;;;1.98;1.77;;;18.90;72.80;;;;;;4995273;28;102927;-40
2021/03/08 00:39:15;;;;;;;1.50;1.40;;;18.90;72.80;;;;;;4994847;28;95955;-44
2021/03/08 00:41:46;;;;;;;1.77;1.67;;;18.90;72.90;;;;;;5008390;28;98841;-40
2021/03/08 00:44:16;;;;;;;3.63;1.98;;;18.90;72.80;;;;;;5018397;28;95666;-40
2021/03/08 00:46:46;;;;;;;1.92;1.50;;;18.90;72.80;;;;;;5007739;28;96532;-40
2021/03/08 00:49:18;;;;;;;2.15;1.50;;;18.90;72.80;;;;;;5013190;28;96219;-41
2021/03/08 00:51:48;;;;;;;2.47;1.75;;;19.00;72.80;;;;;;5012002;28;96295;-40
2021/03/08 00:54:20;;;;;;;2.20;1.70;;;19.00;72.80;;;;;;4999105;28;95628;-41
2021/03/08 00:56:52;;;;;;;1.35;1.17;;;19.00;72.80;;;;;;5017832;27;96044;-40
2021/03/08 00:59:42;;;;;;;2.60;1.60;;;19.00;72.80;;;;;;4996454;28;96667;-40
2021/03/08 01:02:12;;;;;;;1.73;1.60;;;19.00;72.80;;;;;;5013057;28;95923;-41
2021/03/08 01:04:43;;;;;;;1.55;1.25;;;19.00;72.80;;;;;;5043687;27;95429;-40
2021/03/08 01:07:15;;;;;;;3.70;1.92;;;19.10;72.80;;;;;;5016920;28;95334;-40
2021/03/08 01:09:51;;;;;;;2.28;1.40;;;19.10;72.80;;;;;;5006330;28;95967;-41
2021/03/08 01:12:22;;;;;;;2.67;1.52;;;19.10;72.70;;;;;;5004989;28;97871;-40
2021/03/08 01:14:55;;;;;;;3.67;1.55;;;19.10;72.70;;;;;;5023227;28;95215;-41
2021/03/08 01:17:27;;;;;;;1.85;1.38;;;19.10;72.70;;;;;;5013401;27;95387;-40
2021/03/08 01:19:59;;;;;;;1.67;1.58;;;19.20;72.80;;;;;;5017499;28;96041;-40
2021/03/08 01:22:29;;;;;;;2.20;1.70;;;19.20;72.80;;;;;;5012317;28;95974;-40
2021/03/08 01:24:58;;;;;;;1.88;1.60;;;19.20;72.70;;;;;;5016669;28;95380;-40
2021/03/08 01:27:28;;;;;;;3.13;1.83;;;19.20;72.70;;;;;;5015666;28;95417;-40
2021/03/08 01:30:00;;;;;;;2.60;1.52;;;19.20;72.70;;;;;;5025207;28;96379;-40
2021/03/08 01:32:29;;;;;;;3.00;1.52;;;19.30;72.70;;;;;;5009573;27;95905;-40
2021/03/08 01:35:00;;;;;;;2.10;1.50;;;19.30;72.80;;;;;;5021851;28;96033;-40
2021/03/08 01:37:30;;;;;;;1.63;1.13;;;19.30;72.70;;;;;;5020564;28;99179;-40
2021/03/08 01:40:08;;;;;;;1.27;1.17;;;19.30;72.70;;;;;;5015226;28;95943;-40
2021/03/08 01:42:39;;;;;;;1.70;1.45;;;19.30;72.60;;;;;;5003631;28;95424;-40
2021/03/08 01:45:13;;;;;;;1.95;1.77;;;19.40;72.70;;;;;;5018786;28;95234;-39
2021/03/08 01:47:45;;;;;;;2.30;1.50;;;19.40;72.70;;;;;;5012465;28;95589;-40
2021/03/08 01:50:43;;;;;;;1.77;1.50;;;19.40;72.60;;;;;;5027936;28;95950;-40
2021/03/08 01:53:16;;;;;;;2.38;1.60;;;19.40;72.60;;;;;;5014870;28;96029;-40
2021/03/08 01:55:48;;;;;;;1.55;1.45;;;19.40;72.60;;;;;;5011476;28;95351;-40
2021/03/08 01:58:18;;;;;;;1.90;1.27;;;19.40;72.60;;;;;;5011856;28;95927;-40
2021/03/08 02:00:50;;;;;;;2.15;1.40;;;19.50;72.70;;;;;;5018158;28;96115;-40
2021/03/08 02:03:20;;;;;;;1.48;1.23;;;19.50;72.50;;;;;;5015932;28;95759;-40
2021/03/08 02:05:52;;;;;;;1.55;1.40;;;19.50;72.60;;;;;;5018385;28;95720;-41
2021/03/08 02:08:23;;;;;;;1.95;1.60;;;19.60;72.50;;;;;;4999538;28;95851;-40
2021/03/08 02:10:53;;;;;;;1.60;1.38;;;19.60;72.50;;;;;;5016252;28;95945;-40
2021/03/08 02:13:51;;;;;;;1.88;1.40;;;19.60;72.50;;;;;;5019371;27;95402;-40
2021/03/08 02:16:26;;;;;;;1.92;1.45;;;19.70;72.50;;;;;;5014744;27;96146;-40
2021/03/08 02:19:00;;;;;;;2.20;1.45;;;19.60;72.40;;;;;;5015040;28;95291;-40
2021/03/08 02:21:49;;;;;;;2.65;1.30;;;19.70;72.40;;;;;;5014773;28;96489;-40
2021/03/08 02:24:27;;;;;;;1.77;1.48;;;19.70;72.40;;;;;;5014331;28;95895;-40
2021/03/08 02:27:10;;;;;;;2.13;1.48;;;19.70;72.40;;;;;;5015592;28;96181;-49
2021/03/08 02:30:08;;;;;;;2.03;1.70;;;19.70;72.40;;;;;;5016824;28;95854;-40
2021/03/08 02:32:48;;;;;;;2.45;1.30;;;19.70;72.40;;;;;;5014031;28;95902;-40
2021/03/08 02:35:22;;;;;;;1.50;1.17;;;19.70;72.40;;;;;;5016419;28;95971;-40
2021/03/08 02:38:01;;;;;;;1.20;1.10;;;19.70;72.40;;;;;;5020434;28;95616;-40
2021/03/08 02:40:45;;;;;;;1.90;1.52;;;19.80;72.40;;;;;;5014691;28;95677;-40
2021/03/08 02:43:30;;;;;;;1.88;1.40;;;19.80;72.40;;;;;;5017299;27;96225;-40
2021/03/08 02:46:05;;;;;;;2.35;1.40;;;19.70;72.40;;;;;;5012657;27;98066;-40
2021/03/08 02:48:41;;;;;;;1.70;1.50;;;19.80;72.40;;;;;;5021338;28;95244;-40
2021/03/08 02:51:11;;;;;;;2.40;1.55;;;19.80;72.40;;;;;;5016341;28;95925;-40
2021/03/08 02:53:45;;;;;;;2.00;1.70;;;19.80;72.40;;;;;;5010595;28;96142;-41
2021/03/08 02:56:19;;;;;;;2.88;1.52;;;19.80;72.50;;;;;;5012863;28;95911;-40
2021/03/08 02:58:54;;;;;;;3.13;1.45;;;19.80;72.40;;;;;;5015244;28;95727;-40
2021/03/08 03:01:27;;;;;;;1.52;1.40;;;19.80;72.40;;;;;;5012145;28;95849;-40
2021/03/08 03:03:58;;;;;;;1.60;1.38;;;19.80;72.40;;;;;;5025070;28;96685;-40
2021/03/08 03:06:32;;;;;;;2.55;1.40;;;19.80;72.40;;;;;;5010727;28;95229;-40
2021/03/08 03:09:05;;;;;;;2.35;1.77;;;19.80;72.50;;;;;;5017456;28;95694;-40
2021/03/08 03:11:38;;;;;;;1.50;1.40;;;19.80;72.50;;;;;;5013047;28;95231;-40
2021/03/08 03:14:11;;;;;;;2.45;1.92;;;19.90;72.50;;;;;;5019181;28;96824;-40
2021/03/08 03:16:44;;;;;;;0.93;0.90;;;19.90;72.60;;;;;;5008873;27;96013;-40
2021/03/08 03:19:16;;;;;;;1.58;1.48;;;19.90;72.50;;;;;;5016578;28;97243;-41
2021/03/08 03:21:50;;;;;;;1.83;1.45;;;19.80;72.50;;;;;;5015486;28;98077;-40
2021/03/08 03:24:24;;;;;;;1.67;1.35;;;19.90;72.50;;;;;;5018689;28;96449;-40
2021/03/08 03:26:56;;;;;;;1.60;1.50;;;19.90;72.60;;;;;;5013319;28;95860;-40
2021/03/08 03:29:27;;;;;;;1.83;1.33;;;19.90;72.60;;;;;;5014161;28;95757;-40
2021/03/08 03:31:57;;;;;;;2.75;1.35;;;19.90;72.50;;;;;;5005140;28;95907;-40
2021/03/08 03:34:30;;;;;;;2.05;1.60;;;19.90;72.50;;;;;;5009616;28;95918;-40
2021/03/08 03:37:02;;;;;;;1.60;1.48;;;19.90;72.60;;;;;;5015237;28;95610;-40
2021/03/08 03:39:35;;;;;;;1.80;1.65;;;19.90;72.60;;;;;;5017749;28;95557;-40
2021/03/08 03:42:06;;;;;;;1.40;1.30;;;19.90;72.70;;;;;;5020617;28;95546;-40
2021/03/08 03:44:36;;;;;;;2.22;1.42;;;19.90;72.50;;;;;;5012750;28;96768;-40
2021/03/08 03:47:07;;;;;;;2.08;1.70;;;20.00;73.20;;;;;;5011281;27;96292;-40
2021/03/08 03:49:38;;;;;;;2.78;1.40;;;20.00;72.70;;;;;;5010643;28;95333;-41
2021/03/08 03:52:09;;;;;;;3.47;1.55;;;20.00;72.70;;;;;;5013742;28;95925;-40
2021/03/08 03:54:41;;;;;;;1.30;1.20;;;20.00;72.70;;;;;;5021672;28;96079;-40
2021/03/08 03:57:15;;;;;;;1.95;1.58;;;20.00;72.70;;;;;;5014853;28;95711;-41
2021/03/08 03:59:55;;;;;;;2.30;1.30;;;20.00;72.60;;;;;;5013777;28;95377;-40
2021/03/08 04:02:48;;;;;;;1.77;1.27;;;20.00;72.60;;;;;;4994892;28;95690;-40
2021/03/08 04:05:24;;;;;;;1.42;1.33;;;20.00;72.70;;;;;;5009938;28;95890;-40
2021/03/08 04:07:57;;;;;;;1.92;1.55;;;20.00;72.60;;;;;;4994080;28;97054;-41
2021/03/08 04:10:27;;;;;;;1.88;1.48;;;20.00;72.70;;;;;;5015859;28;95892;-40
2021/03/08 04:13:04;;;;;;;1.55;1.45;;;20.00;72.60;;;;;;5013589;28;95352;-40
2021/03/08 04:15:37;;;;;;;1.63;1.52;;;20.00;72.70;;;;;;5006967;27;96131;-40
2021/03/08 04:18:12;;;;;;;2.20;1.52;;;20.00;72.70;;;;;;5018857;28;103579;-41
2021/03/08 04:20:43;;;;;;;4.00;1.67;;;20.00;73.30;;;;;;5016227;28;95763;-41
2021/03/08 04:23:13;;;;;;;;;;;20.10;72.80;;;;;;5015256;28;95804;-40
2021/03/08 04:25:47;;;;;;;2.45;1.65;;;20.00;72.70;;;;;;5021502;28;96436;-41
2021/03/08 04:28:17;;;;;;;3.55;2.03;;;20.10;72.70;;;;;;5024852;28;95926;-41
2021/03/08 04:30:47;;;;;;;1.52;1.40;;;20.00;72.70;;;;;;5014308;28;95393;-40
2021/03/08 04:33:18;;;;;;;2.00;1.70;;;20.00;72.70;;;;;;5011325;28;95602;-40
2021/03/08 04:35:48;;;;;;;2.13;1.77;;;20.10;72.80;;;;;;5015967;28;96199;-40
2021/03/08 04:38:21;;;;;;;1.75;1.30;;;20.00;72.70;;;;;;5009823;28;95804;-40
2021/03/08 04:40:51;;;;;;;1.67;1.58;;;20.10;72.80;;;;;;5011783;28;95865;-40
2021/03/08 04:43:24;;;;;;;1.67;1.50;;;20.00;73.40;;;;;;5022150;28;96493;-40
2021/03/08 04:45:59;;;;;;;1.95;1.48;;;20.00;72.80;;;;;;5006866;27;96669;-40
2021/03/08 04:48:34;;;;;;;1.63;1.52;;;20.10;72.90;;;;;;5016864;28;97104;-40
2021/03/08 04:51:07;;;;;;;3.38;1.70;;;20.10;72.90;;;;;;5010000;28;102390;-40
2021/03/08 04:53:41;;;;;;;2.65;1.45;;;20.10;72.90;;;;;;5020319;28;96550;-40
2021/03/08 04:56:33;;;;;;;1.30;1.15;;;20.00;72.80;;;;;;5014524;28;95951;-40
2021/03/08 04:59:04;;;;;;;1.60;1.10;;;20.10;72.90;;;;;;5015000;28;95887;-40
2021/03/08 05:01:36;;;;;;;1.80;1.52;;;20.10;73.00;;;;;;5014911;28;97013;-40
2021/03/08 05:04:10;;;;;;;1.50;1.40;;;20.10;73.00;;;;;;5021590;28;95711;-40
2021/03/08 05:06:43;;;;;;;1.95;1.30;;;20.00;72.90;;;;;;5015332;28;95997;-41
2021/03/08 05:09:15;;;;;;;1.90;1.17;;;20.00;72.90;;;;;;5018677;28;95968;-40
2021/03/08 05:11:46;;;;;;;1.73;1.40;;;20.00;72.90;;;;;;5016745;28;95266;-40
2021/03/08 05:14:21;;;;;;;1.65;1.55;;;20.00;72.90;;;;;;5013215;28;95404;-40
2021/03/08 05:16:53;;;;;;;1.45;1.30;;;20.10;73.00;;;;;;5015368;27;95937;-40
2021/03/08 05:19:25;;;;;;;2.88;1.48;;;20.00;73.00;;;;;;5012500;28;95819;-40
2021/03/08 05:21:57;;;;;;;2.03;1.48;;;20.00;73.00;;;;;;5016254;28;95289;-40
2021/03/08 05:24:27;;;;;;;2.03;1.50;;;20.00;73.00;;;;;;5017592;28;95937;-40
2021/03/08 05:26:58;;;;;;;2.77;1.80;;;20.00;73.00;;;;;;5007876;28;96519;-40
2021/03/08 05:29:27;;;;;;;1.70;1.53;;;20.00;73.10;;;;;;5009117;28;96005;-41
2021/03/08 05:31:58;;;;;;;1.60;1.50;;;20.00;73.20;;;;;;5009600;28;96347;-41
2021/03/08 05:34:29;;;;;;;1.35;1.25;;;20.00;73.20;;;;;;5026442;28;95814;-49
2021/03/08 05:37:03;;;;;;;1.63;1.27;;;20.00;73.20;;;;;;5017854;28;95954;-41
2021/03/08 05:39:36;;;;;;;2.03;1.52;;;20.00;73.30;;;;;;5019826;28;95407;-41
2021/03/08 05:42:11;;;;;;;2.03;1.83;;;20.00;73.20;;;;;;5015155;28;95637;-41
2021/03/08 05:44:53;;;;;;;1.92;1.38;;;20.00;73.20;;;;;;5023162;28;95977;-41
2021/03/08 05:47:33;;;;;;;1.38;1.27;;;20.00;73.20;;;;;;5006030;28;97860;-40
2021/03/08 05:50:19;;;;;;;2.08;1.58;;;20.00;73.30;;;;;;5011096;28;95874;-43
2021/03/08 05:53:24;;;;;;;2.35;1.98;;;20.00;73.30;;;;;;5009846;28;95329;-47
2021/03/08 05:56:12;;;;;;;1.85;1.40;;;20.00;73.40;;;;;;5017379;28;95463;-41
2021/03/08 05:59:10;;;;;;;1.92;1.30;;;19.90;73.30;;;;;;5018924;28;98686;-41
2021/03/08 06:02:06;;;;;;;1.17;1.08;;;20.00;73.40;;;;;;5012757;28;96619;-42
2021/03/08 06:04:54;;;;;;;2.72;1.77;;;19.90;73.40;;;;;;5020741;28;95868;-41
2021/03/08 06:07:36;;;;;;;2.22;1.95;;;19.90;73.40;;;;;;5027254;28;96008;-41
2021/03/08 06:10:12;;;;;;;2.53;1.63;;;19.90;73.40;;;;;;5010243;28;95622;-44
2021/03/08 06:12:45;;;;;;;1.70;1.27;;;19.90;73.50;;;;;;5003011;28;95842;-40
2021/03/08 06:15:21;;;;;;;1.55;1.45;;;19.90;73.50;;;;;;5020982;27;95282;-40
2021/03/08 06:17:51;;;;;;;1.80;1.52;;;19.90;73.60;;;;;;5008825;28;95776;-40
2021/03/08 06:20:26;;;;;;;1.60;1.50;;;19.90;73.60;;;;;;5024870;28;99959;-41
2021/03/08 06:22:57;;;;;;;1.88;1.58;;;19.90;73.70;;;;;;5011862;28;95726;-41
2021/03/08 06:25:27;;;;;;;2.28;1.70;;;19.90;73.60;;;;;;5014223;28;96001;-40
2021/03/08 06:27:58;;;;;;;3.22;1.20;;;19.90;73.70;;;;;;5013352;28;95337;-40
2021/03/08 06:30:28;;;;;;;1.92;1.00;;;19.90;73.70;;;;;;5017102;28;98575;-41
2021/03/08 06:32:57;;;;;;;1.48;1.33;;;19.90;73.70;;;;;;5021839;28;102267;-43
2021/03/08 06:35:29;;;;;;;1.50;1.30;;;19.90;73.80;;;;;;5008652;28;96482;-40
2021/03/08 06:38:01;;;;;;;1.73;1.35;;;19.90;73.80;;;;;;5008817;28;95929;-42
2021/03/08 06:40:34;;;;;;;2.03;1.67;;;19.90;73.90;;;;;;5006634;28;96105;-40
2021/03/08 06:43:04;;;;;;;1.45;1.35;;;19.90;73.90;;;;;;4991944;28;95743;-40
2021/03/08 06:45:35;;;;;;;1.80;1.40;;;19.80;73.80;;;;;;5008461;28;96256;-41
2021/03/08 06:48:09;;;;;;;2.45;1.52;;;19.80;73.80;;;;;;5016367;28;95652;-40
2021/03/08 06:50:38;;;;;;;2.13;1.50;;;19.80;74.60;;;;;;5020749;28;97965;-40
2021/03/08 06:53:09;;;;;;;1.98;1.50;;;19.80;74.00;;;;;;5009966;28;96281;-40
2021/03/08 06:55:40;;;;;;;2.10;1.50;;;19.80;74.00;;;;;;5009923;28;96232;-40
2021/03/08 06:58:18;;;;;;;2.78;1.50;;;19.80;74.00;;;;;;5011153;28;95612;-41
2021/03/08 07:00:50;;;;;;;2.20;1.80;;;19.80;74.10;;;;;;5006625;28;96235;-40
2021/03/08 07:03:35;;;;;;;2.15;1.40;;;19.80;74.10;;;;;;4996927;28;95947;-41
2021/03/08 07:06:19;;;;;;;1.65;1.38;;;19.80;74.10;;;;;;5017261;28;95847;-40
2021/03/08 07:08:50;;;;;;;2.75;1.70;;;19.80;74.10;;;;;;5019728;28;95944;-40
2021/03/08 07:11:23;;;;;;;2.13;1.30;;;19.80;74.20;;;;;;5007808;28;96012;-40
2021/03/08 07:13:59;;;;;;;1.25;1.15;;;19.80;74.20;;;;;;5025290;28;96133;-40
2021/03/08 07:16:38;;;;;;;2.30;1.70;;;19.70;74.20;;;;;;5009399;28;95410;-40
2021/03/08 07:19:10;;;;;;;2.03;1.63;;;19.80;74.30;;;;;;5019902;28;95731;-41
2021/03/08 07:21:42;;;;;;;3.83;1.52;;;19.80;74.20;;;;;;5012276;28;96496;-40
2021/03/08 07:24:13;;;;;;;1.63;1.25;;;19.80;74.20;;;;;;5017467;28;95614;-43
2021/03/08 07:26:54;;;;;;;1.85;1.45;;;19.70;74.30;;;;;;5009039;28;95926;-40
2021/03/08 07:29:26;;;;;;;2.85;1.38;;;19.70;74.30;;;;;;5011720;28;95554;-41
2021/03/08 07:31:57;;;;;;;2.72;1.45;;;19.70;74.40;;;;;;5010093;28;96600;-40
2021/03/08 07:34:49;;;;;;;1.00;0.98;;;19.70;74.40;;;;;;5013024;28;95912;-40
2021/03/08 07:37:19;;;;;;;1.73;1.40;;;19.70;74.40;;;;;;5020765;28;95773;-40
2021/03/08 07:39:54;;;;;;;2.30;1.35;;;19.70;74.50;;;;;;5010165;28;95755;-40
2021/03/08 07:42:42;;;;;;;1.92;1.52;;;19.70;74.50;;;;;;5013336;28;95991;-41
2021/03/08 07:45:15;;;;;;;1.35;1.13;;;19.70;74.60;;;;;;5007197;27;96346;-40
2021/03/08 07:47:46;;;;;;;2.67;1.58;;;19.70;74.50;;;;;;5018029;28;95877;-41
2021/03/08 07:50:28;;;;;;;2.53;1.60;;;19.70;74.50;;;;;;5016159;28;95799;-41
2021/03/08 07:52:59;;;;;;;2.13;1.40;;;19.60;74.50;;;;;;5014374;27;96109;-40
2021/03/08 07:55:38;;;;;;;1.73;1.35;;;19.60;74.60;;;;;;5011105;28;95433;-40
2021/03/08 07:58:08;;;;;;;1.23;1.13;;;19.60;74.60;;;;;;5021572;28;95657;-41
2021/03/08 08:00:40;;;;;;;1.63;1.53;;;19.60;74.60;;;;;;5011514;28;95754;-40
2021/03/08 08:03:10;;;;;;;2.53;1.42;;;19.60;74.70;;;;;;5011288;28;96034;-40
2021/03/08 08:05:41;;;;;;;1.38;1.00;;;19.60;74.80;;;;;;5014915;28;96244;-42
2021/03/08 08:08:11;;;;;;;1.90;1.75;;;19.60;74.80;;;;;;5011899;28;95893;-40
2021/03/08 08:10:42;;;;;;;1.27;1.02;;;19.60;74.80;;;;;;5020701;28;95336;-40
2021/03/08 08:13:13;;;;;;;1.85;1.25;;;19.50;74.90;;;;;;5015008;28;95913;-40
2021/03/08 08:15:47;;;;;;;2.33;1.75;;;19.50;74.90;;;;;;5032973;27;95864;-40
2021/03/08 08:18:22;;;;;;;1.67;1.58;;;19.50;74.90;;;;;;5008394;28;95581;-40
2021/03/08 08:20:55;;;;;;;1.33;1.25;;;19.50;74.80;;;;;;5013565;28;95563;-40
2021/03/08 08:23:31;;;;;;;1.20;1.10;;;19.50;74.90;;;;;;5012917;28;96191;-40
2021/03/08 08:26:01;;;;;;;2.83;1.75;;;19.50;74.90;;;;;;5016750;28;96124;-40
2021/03/08 08:28:33;;;;;;;2.10;1.45;;;19.50;74.90;;;;;;5017898;28;95776;-40
2021/03/08 08:31:03;;;;;;;1.95;1.23;;;19.50;75.00;;;;;;5015143;28;95627;-40
2021/03/08 08:33:35;;;;;;;1.60;1.20;;;19.50;75.00;;;;;;5008055;28;97211;-40
2021/03/08 08:36:20;;;;;;;1.27;1.15;;;19.50;75.00;;;;;;5012522;28;95980;-40
2021/03/08 08:38:56;;;;;;;1.63;1.27;;;19.40;75.00;;;;;;5014954;27;95557;-40
2021/03/08 08:41:33;;;;;;;1.70;1.20;;;19.40;75.00;;;;;;5005307;28;95605;-41
2021/03/08 08:44:15;;;;;;;1.80;1.20;;;19.40;75.10;;;;;;5023235;28;96426;-41
2021/03/08 08:46:46;;;;;;;3.83;1.40;;;19.40;75.10;;;;;;5015403;27;95303;-40
2021/03/08 08:49:20;;;;;;;1.20;1.10;;;19.40;75.10;;;;;;5019963;28;95307;-40
2021/03/08 08:51:54;;;;;;;1.58;1.40;;;19.40;75.10;;;;;;5012011;28;98421;-41
2021/03/08 08:54:31;;;;;;;1.67;1.30;;;19.40;75.10;;;;;;5025020;28;96387;-41
2021/03/08 08:57:06;;;;;;;2.58;1.13;;;19.40;75.20;;;;;;5011517;28;95540;-40
2021/03/08 08:59:48;;;;;;;2.42;1.33;;;19.40;75.20;;;;;;5008310;28;95720;-41
2021/03/08 09:02:28;;;;;;;1.83;1.67;;;19.40;75.20;;;;;;5010038;28;95739;-40
2021/03/08 09:04:57;;;;;;;1.13;1.02;;;19.30;75.20;;;;;;5014216;28;96099;-40
2021/03/08 09:07:29;;;;;;;0.98;0.88;;;19.30;75.20;;;;;;5013508;28;95586;-40
2021/03/08 09:10:00;;;;;;;1.25;1.15;;;19.40;75.30;;;;;;5019518;28;95733;-40
2021/03/08 09:12:43;;;;;;;2.53;1.23;;;19.40;75.30;;;;;;5018961;28;96058;-40
2021/03/08 09:15:22;;;;;;;1.42;1.10;;;19.30;75.30;;;;;;5010973;27;96142;-40
2021/03/08 09:17:56;;;;;;;2.17;1.10;;;19.30;75.30;;;;;;5015372;28;102136;-40
2021/03/08 09:20:29;;;;;;;1.30;1.20;;;19.30;75.30;;;;;;5021558;28;95702;-40
2021/03/08 09:23:02;;;;;;;2.58;1.25;;;19.30;75.40;;;;;;5006047;28;96071;-40
2021/03/08 09:25:34;;;;;;;2.33;1.60;;;19.20;75.30;;;;;;5018109;28;99960;-40
2021/03/08 09:28:10;;;;;;;1.63;0.90;;;19.30;75.40;;;;;;5014447;28;97333;-40
2021/03/08 09:30:46;;;;;;;2.03;1.10;;;19.20;75.40;;;;;;5009442;28;97098;-40
2021/03/08 09:33:17;;;;;;;1.10;1.00;;;19.30;75.40;;;;;;5011621;28;95868;-40
2021/03/08 09:35:50;;;;;;;1.35;1.25;;;19.20;75.40;;;;;;5014285;28;96468;-40
2021/03/08 09:38:28;;;;;;;2.00;1.23;;;19.20;75.30;;;;;;5015764;28;95797;-40
2021/03/08 09:41:00;;;;;;;3.13;1.35;;;19.20;75.40;;;;;;5009814;28;95313;-40
2021/03/08 09:43:39;;;;;;;2.22;1.30;;;19.20;75.40;;;;;;5010942;28;95827;-40
2021/03/08 09:46:12;;;;;;;1.60;1.08;;;19.20;75.50;;;;;;5018270;28;96466;-41
2021/03/08 09:48:54;;;;;;;1.20;1.10;;;19.20;75.40;;;;;;5018437;28;95906;-40
2021/03/08 09:51:24;;;;;;;2.20;0.90;;;19.20;75.40;;;;;;5019037;28;96076;-40
2021/03/08 09:53:56;;;;;;;1.35;1.02;;;19.20;75.40;;;;;;5023899;28;95922;-40
2021/03/08 09:56:27;;;;;;;1.98;1.17;;;19.20;75.50;;;;;;5016653;28;96455;-40
2021/03/08 09:59:02;;;;;;;;;;;19.20;75.50;;;;;;5027626;28;95789;-40
2021/03/08 10:01:34;;;;;;;1.35;0.95;;;19.20;75.50;;;;;;5015172;28;95850;-40
2021/03/08 10:04:05;;;;;;;1.95;1.10;;;19.20;75.60;;;;;;5020058;28;95620;-40
2021/03/08 10:06:50;;;;;;;1.20;1.10;;;19.10;75.40;;;;;;5011042;28;95980;-40
2021/03/08 10:09:22;;;;;;;0.88;0.80;;;19.20;75.60;;;;;;5012602;28;95809;-40
2021/03/08 10:12:03;;;;;;;1.20;1.10;;;19.10;75.60;;;;;;4997170;28;95393;-40
2021/03/08 10:14:34;;;;;;;1.52;1.38;;;19.10;75.60;;;;;;5015868;28;95817;-40
2021/03/08 10:17:17;;;;;;;1.15;1.02;;;19.10;75.60;;;;;;4993806;28;96642;-40
2021/03/08 10:19:59;;;;;;;2.45;1.30;;;19.10;75.60;;;;;;5012405;28;95796;-40
2021/03/08 10:22:41;;;;;;;2.03;1.00;;;19.10;75.60;;;;;;5015843;28;95834;-40
2021/03/08 10:25:21;;;;;;;1.50;1.20;;;19.10;75.70;;;;;;5021191;28;95333;-40
2021/03/08 10:28:00;;;;;;;1.17;1.08;;;19.10;75.60;;;;;;5037689;27;96496;-40
2021/03/08 10:30:33;;;;;;;1.20;1.10;;;19.10;75.60;;;;;;4994202;28;96076;-40
2021/03/08 10:33:18;;;;;;;2.33;0.93;;;19.10;75.70;;;;;;5016144;28;95966;-40
2021/03/08 10:35:56;;;;;;;1.05;0.98;;;19.00;76.20;;;;;;5014866;28;95609;-40
2021/03/08 10:38:33;;;;;;;1.30;1.05;;;19.00;75.70;;;;;;5016141;28;96030;-41
2021/03/08 10:41:06;;;;;;;1.10;0.93;;;19.00;75.70;;;;;;5022325;28;96013;-40
2021/03/08 10:43:36;;;;;;;1.80;0.80;;;19.00;75.70;;;;;;5009590;28;95592;-40
2021/03/08 10:46:07;;;;;;;1.17;0.88;;;19.00;75.70;;;;;;5012872;28;97263;-40
2021/03/08 10:48:59;;;;;;;1.13;0.88;;;19.00;75.70;;;;;;5009054;28;95961;-40
2021/03/08 10:51:32;;;;;;;3.60;1.35;;;19.00;75.70;;;;;;5018469;28;95898;-40
2021/03/08 10:54:09;;;;;;;1.10;0.88;;;18.90;75.60;;;;;;5016644;28;95242;-40
2021/03/08 10:56:44;;;;;;;1.75;0.93;;;19.00;75.80;;;;;;5022458;28;95432;-40
2021/03/08 10:59:26;;;;;;;1.20;1.10;;;19.00;75.70;;;;;;5019332;28;96209;-40
2021/03/08 11:02:09;;;;;;;1.10;1.00;;;19.00;75.70;;;;;;5008090;27;96048;-40
2021/03/08 11:04:38;;;;;;;0.82;0.80;;;19.00;75.70;;;;;;5011270;28;95850;-40
2021/03/08 11:07:28;;;;;;;1.58;0.95;;;18.90;75.70;;;;;;5019843;28;95658;-40
2021/03/08 11:09:58;;;;;;;1.42;0.90;;;19.00;75.80;;;;;;5015243;28;96916;-40
2021/03/08 11:12:28;;;;;;;1.00;0.90;;;18.90;76.30;;;;;;5010588;28;96734;-40
2021/03/08 11:14:59;;;;;;;0.98;0.82;;;18.90;75.70;;;;;;5011210;28;95701;-40
2021/03/08 11:17:43;;;;;;;0.85;0.85;;;18.90;75.80;;;;;;5008609;27;95708;-40
2021/03/08 11:20:21;;;;;;;0.70;0.70;;;18.90;75.80;;;;;;5008815;28;96986;-40
2021/03/08 11:23:08;;;;;;;2.03;1.27;;;18.90;75.80;;;;;;5008519;28;95877;-40
2021/03/08 11:25:41;;;;;;;2.00;0.98;;;18.90;75.80;;;;;;5015165;28;100560;-40
2021/03/08 11:28:13;;;;;;;1.25;0.80;;;18.90;75.90;;;;;;5009802;28;96091;-40
2021/03/08 11:30:52;;;;;;;1.58;1.20;;;18.90;75.80;;;;;;4988012;28;98153;-40
2021/03/08 11:33:21;;;;;;;1.00;1.00;;;18.90;75.90;;;;;;5018167;28;95880;-40
2021/03/08 11:35:52;;;;;;;1.33;0.90;;;18.90;75.80;;;;;;5007651;28;95653;-40
2021/03/08 11:38:26;;;;;;;1.40;1.00;;;18.80;75.70;;;;;;5026472;28;95611;-40
2021/03/08 11:40:58;;;;;;;1.38;1.02;;;18.80;75.80;;;;;;5020835;28;96545;-40
2021/03/08 11:43:29;;;;;;;1.00;0.88;;;18.90;75.80;;;;;;5003471;28;96698;-40
2021/03/08 11:46:00;;;;;;;1.02;1.00;;;18.80;75.80;;;;;;5011210;27;95967;-40
2021/03/08 11:48:31;;;;;;;1.13;0.77;;;18.80;75.70;;;;;;5018196;28;95618;-40
2021/03/08 11:51:02;;;;;;;0.85;0.80;;;18.80;75.70;;;;;;5014737;28;96041;-40
2021/03/08 11:53:33;;;;;;;0.80;0.80;;;18.80;75.70;;;;;;5023290;28;95410;-40
2021/03/08 11:56:04;;;;;;;1.53;1.13;;;18.80;75.70;;;;;;5012699;28;97390;-40
2021/03/08 11:58:35;;;;;;;1.58;0.98;;;18.80;75.70;;;;;;5021135;28;95665;-40
2021/03/08 12:01:06;;;;;;;2.03;1.00;;;18.80;75.80;;;;;;5003241;28;95878;-40
2021/03/08 12:03:36;;;;;;;1.25;1.08;;;18.80;75.80;;;;;;5023541;28;95574;-40
2021/03/08 12:06:05;;;;;;;0.82;0.70;;;18.80;75.80;;;;;;5013708;28;96170;-40
2021/03/08 12:08:35;;;;;;;0.82;0.80;;;18.80;75.80;;;;;;4998624;28;95694;-40
2021/03/08 12:11:05;;;;;;;0.60;0.60;;;18.70;75.80;;;;;;5012793;28;96655;-40
2021/03/08 12:13:36;;;;;;;1.02;0.98;;;18.80;75.80;;;;;;5014657;28;95436;-41
2021/03/08 12:16:06;;;;;;;0.88;0.88;;;18.80;75.80;;;;;;5014720;27;96149;-40
2021/03/08 12:18:37;;;;;;;;;;;18.80;75.80;;;;;;5016242;28;95518;-41
2021/03/08 12:21:09;;;;;;;1.20;0.80;;;18.80;75.80;;;;;;5021230;28;96159;-40
2021/03/08 12:23:38;;;;;;;1.25;0.85;;;18.70;75.80;;;;;;5018670;28;95430;-40
2021/03/08 12:26:08;;;;;;;0.70;0.70;;;18.70;75.80;;;;;;5011092;28;95839;-40
2021/03/08 12:28:37;;;;;;;1.58;0.95;;;18.70;75.80;;;;;;5014289;28;95931;-40
2021/03/08 12:31:18;;;;;;;0.80;0.80;;;18.80;75.80;;;;;;5016802;28;95839;-40
2021/03/08 12:33:51;;;;;;;0.80;0.80;;;18.70;75.80;;;;;;5011252;28;95420;-40
2021/03/08 12:36:21;;;;;;;1.38;0.80;;;18.70;75.70;;;;;;5010892;28;95964;-40
2021/03/08 12:38:52;;;;;;;0.90;0.82;;;18.70;75.80;;;;;;5018744;27;96105;-40
2021/03/08 12:41:22;;;;;;;;;;;18.70;75.90;;;;;;5019527;28;96032;-40
2021/03/08 12:43:52;;;;;;;0.60;0.60;;;18.70;75.90;;;;;;5018009;28;96995;-40
2021/03/08 12:46:24;;;;;;;0.90;0.90;;;18.70;75.80;;;;;;5009883;28;95905;-40
2021/03/08 12:48:55;;;;;;;2.15;0.80;;;18.70;75.90;;;;;;5015758;28;100916;-41
2021/03/08 12:51:25;;;;;;;0.68;0.68;;;18.70;75.90;;;;;;5016478;28;96879;-39
2021/03/08 12:53:56;;;;;;;0.90;0.90;;;18.70;75.90;;;;;;5016731;28;97515;-39
2021/03/08 12:56:26;;;;;;;;;;;18.60;75.90;;;;;;5019951;28;95763;-39
2021/03/08 12:58:57;;;;;;;0.70;0.70;;;18.60;75.90;;;;;;5029377;28;95389;-39
2021/03/08 13:01:27;;;;;;;;;;;18.60;75.90;;;;;;5026101;28;96653;-40
2021/03/08 13:03:57;;;;;;;0.73;0.73;;;18.70;75.90;;;;;;5019621;28;95924;-39
2021/03/08 13:06:26;;;;;;;0.77;0.70;;;18.60;75.90;;;;;;5013454;28;98342;-39
2021/03/08 13:09:06;;;;;;;1.17;0.80;;;18.60;75.90;;;;;;5023779;28;95814;-39
2021/03/08 13:11:36;;;;;;;1.08;0.95;;;18.60;75.90;;;;;;5024559;28;95848;-39
2021/03/08 13:14:05;;;;;;;0.85;0.82;;;18.60;75.90;;;;;;5014991;28;95673;-40
2021/03/08 13:16:37;;;;;;;1.20;1.10;;;18.60;75.90;;;;;;5018948;28;95550;-39
2021/03/08 13:19:11;;;;;;;0.95;0.90;;;18.60;75.90;;;;;;5012485;28;98153;-39
2021/03/08 13:21:44;;;;;;;0.88;0.88;;;18.60;75.90;;;;;;5020613;28;95939;-39
2021/03/08 13:24:14;;;;;;;0.80;0.80;;;18.60;75.90;;;;;;5015097;28;95944;-40